Time;durP1;ratioP1;P1;durP2;ratioP2;P2;SDS_P1;SDS_P2;PMS_P1;PMS_P2;Temp;Humidity;BMP_temperature;BMP_pressure;BME280_temperature;BME280_humidity;BME280_pressure;Samples;Min_cycle;Max_cycle;Signal;HPM_P1;HPM_P2
2023/07/18 00:03:00;;;;;;;0.70;0.70;;;22.60;62.90;;;;;;6243600;28;20025;-69
2023/07/18 00:06:01;;;;;;;0.63;0.60;;;22.60;62.90;;;;;;6220600;28;20088;-70
2023/07/18 00:09:02;;;;;;;0.95;0.85;;;22.60;62.90;;;;;;6207458;28;20037;-70
2023/07/18 00:12:03;;;;;;;1.00;0.90;;;22.60;62.90;;;;;;6243147;28;20033;-70
2023/07/18 00:15:06;;;;;;;0.77;0.77;;;22.60;63.70;;;;;;6224218;28;20038;-69
2023/07/18 00:18:07;;;;;;;0.90;0.80;;;22.60;62.90;;;;;;6200800;28;20170;-70
2023/07/18 00:21:07;;;;;;;1.10;0.90;;;22.60;63.80;;;;;;6239809;28;20033;-69
2023/07/18 00:24:08;;;;;;;1.15;1.00;;;22.60;62.90;;;;;;6237830;28;20030;-69
2023/07/18 00:27:08;;;;;;;0.73;0.73;;;22.60;62.90;;;;;;6226736;28;20036;-69
2023/07/18 00:30:13;;;;;;;1.08;0.80;;;22.60;63.00;;;;;;6229867;28;20033;-69
2023/07/18 00:33:14;;;;;;;0.90;0.80;;;22.60;62.90;;;;;;6218894;28;20030;-70
2023/07/18 00:36:14;;;;;;;1.15;0.95;;;22.70;63.00;;;;;;6242224;28;20371;-69
2023/07/18 00:39:15;;;;;;;1.10;0.90;;;22.60;62.90;;;;;;6244307;28;20034;-70
2023/07/18 00:42:15;;;;;;;0.90;0.70;;;22.60;62.90;;;;;;6222260;28;20030;-70
2023/07/18 00:45:16;;;;;;;1.25;0.85;;;22.70;63.00;;;;;;6234499;28;20033;-70
2023/07/18 00:48:17;;;;;;;0.82;0.80;;;22.60;63.00;;;;;;6247229;28;20030;-69
2023/07/18 00:51:18;;;;;;;0.63;0.63;;;22.60;62.90;;;;;;6228368;28;20037;-69
2023/07/18 00:54:20;;;;;;;1.20;0.80;;;22.60;62.90;;;;;;6224573;28;20041;-69
2023/07/18 00:57:22;;;;;;;0.50;0.40;;;22.60;63.00;;;;;;6248067;28;20609;-70
2023/07/18 01:00:23;;;;;;;0.80;0.70;;;22.60;62.90;;;;;;6237203;28;20033;-70
2023/07/18 01:03:23;;;;;;;0.88;0.63;;;22.60;62.90;;;;;;6222788;28;20534;-69
2023/07/18 01:06:24;;;;;;;1.17;0.85;;;22.70;63.00;;;;;;6223159;28;20346;-70
2023/07/18 01:09:25;;;;;;;0.80;0.70;;;22.70;63.00;;;;;;6229084;28;20091;-70
2023/07/18 01:12:26;;;;;;;1.15;1.05;;;22.70;63.00;;;;;;6220031;28;20034;-70
2023/07/18 01:15:29;;;;;;;0.75;0.73;;;22.60;62.90;;;;;;6238321;28;20045;-70
2023/07/18 01:18:30;;;;;;;0.80;0.80;;;22.70;63.00;;;;;;6247726;28;20026;-69
2023/07/18 01:21:31;;;;;;;0.98;0.80;;;22.60;62.90;;;;;;6230240;28;20562;-69
2023/07/18 01:24:31;;;;;;;2.30;1.10;;;22.60;62.90;;;;;;6223000;28;20030;-69
2023/07/18 01:27:32;;;;;;;1.05;0.85;;;22.60;63.00;;;;;;6228717;28;20062;-70
2023/07/18 01:30:33;;;;;;;0.70;0.70;;;22.60;63.00;;;;;;6239646;28;20025;-70
2023/07/18 01:33:34;;;;;;;0.95;0.82;;;22.60;62.90;;;;;;6221221;28;20030;-69
2023/07/18 01:36:34;;;;;;;1.67;0.85;;;22.60;62.90;;;;;;6237360;28;20048;-69
2023/07/18 01:39:35;;;;;;;1.00;0.82;;;22.60;63.00;;;;;;6247282;28;20034;-69
2023/07/18 01:42:36;;;;;;;0.60;0.60;;;22.60;63.00;;;;;;6223503;28;20033;-70
2023/07/18 01:45:37;;;;;;;1.13;1.00;;;22.60;63.00;;;;;;6228140;28;20033;-71
2023/07/18 01:48:38;;;;;;;0.75;0.75;;;22.60;63.00;;;;;;6247177;28;20032;-69
2023/07/18 01:51:39;;;;;;;0.65;0.65;;;22.60;63.00;;;;;;6232663;28;20033;-70
2023/07/18 01:54:40;;;;;;;0.77;0.63;;;22.60;63.00;;;;;;6204350;28;20102;-69
2023/07/18 01:57:40;;;;;;;1.02;0.93;;;22.60;63.00;;;;;;6243368;28;20033;-69
2023/07/18 02:00:41;;;;;;;1.15;0.80;;;22.60;63.00;;;;;;6224358;28;20030;-69
2023/07/18 02:03:41;;;;;;;0.95;0.80;;;22.60;63.00;;;;;;6221849;28;20038;-69
2023/07/18 02:06:42;;;;;;;1.00;0.80;;;22.60;63.00;;;;;;6233795;28;20056;-70
2023/07/18 02:09:43;;;;;;;0.77;0.77;;;22.60;63.00;;;;;;6242731;28;20029;-70
2023/07/18 02:12:43;;;;;;;0.73;0.70;;;22.60;63.00;;;;;;6226747;28;20026;-70
2023/07/18 02:15:44;;;;;;;0.70;0.60;;;22.60;63.00;;;;;;6242743;28;20033;-69
2023/07/18 02:18:44;;;;;;;1.42;0.70;;;22.60;63.00;;;;;;6221956;28;20113;-70
2023/07/18 02:21:45;;;;;;;0.70;0.70;;;22.60;63.00;;;;;;6231665;28;20128;-70
2023/07/18 02:24:47;;;;;;;0.70;0.70;;;22.70;63.10;;;;;;6246196;28;20029;-69
2023/07/18 02:27:48;;;;;;;0.70;0.70;;;22.60;63.00;;;;;;6227664;28;20167;-69
2023/07/18 02:30:52;;;;;;;1.00;0.90;;;22.60;63.90;;;;;;6244628;28;20021;-69
2023/07/18 02:33:52;;;;;;;1.38;0.80;;;22.70;63.10;;;;;;6202845;28;20033;-69
2023/07/18 02:36:53;;;;;;;0.40;0.40;;;22.70;63.10;;;;;;6230576;28;20395;-70
2023/07/18 02:39:54;;;;;;;1.20;0.90;;;22.60;63.00;;;;;;6245709;28;20026;-70
2023/07/18 02:42:55;;;;;;;0.93;0.70;;;22.60;63.00;;;;;;6236669;28;20499;-69
2023/07/18 02:45:56;;;;;;;0.90;0.75;;;22.60;63.00;;;;;;6244987;28;20483;-69
2023/07/18 02:48:56;;;;;;;1.00;0.80;;;22.60;63.00;;;;;;6200521;28;20041;-69
2023/07/18 02:51:57;;;;;;;0.75;0.70;;;22.60;63.00;;;;;;6228901;28;20026;-69
2023/07/18 02:54:58;;;;;;;0.80;0.70;;;22.60;63.00;;;;;;6245401;28;20487;-70
2023/07/18 02:57:58;;;;;;;0.60;0.60;;;22.60;63.00;;;;;;6228458;28;20117;-70
2023/07/18 03:00:59;;;;;;;0.50;0.50;;;22.60;63.00;;;;;;6220747;28;20107;-69
2023/07/18 03:04:00;;;;;;;0.95;0.90;;;22.60;63.00;;;;;;6243162;28;20025;-69
2023/07/18 03:07:02;;;;;;;0.90;0.63;;;22.60;63.00;;;;;;6238713;28;20400;-69
2023/07/18 03:10:04;;;;;;;0.70;0.70;;;22.60;63.00;;;;;;6220929;28;20098;-70
2023/07/18 03:13:05;;;;;;;0.90;0.80;;;22.60;63.00;;;;;;6231804;28;20076;-70
2023/07/18 03:16:07;;;;;;;0.80;0.80;;;22.60;63.00;;;;;;6220244;28;20038;-70
2023/07/18 03:19:08;;;;;;;0.90;0.70;;;22.60;63.00;;;;;;6242129;28;20021;-70
2023/07/18 03:22:09;;;;;;;0.80;0.80;;;22.60;63.00;;;;;;6238543;28;20767;-70
2023/07/18 03:25:10;;;;;;;0.70;0.60;;;22.60;63.00;;;;;;6220058;28;20026;-69
2023/07/18 03:28:11;;;;;;;1.13;0.95;;;22.60;63.00;;;;;;6233184;28;20542;-69
2023/07/18 03:31:11;;;;;;;1.90;0.82;;;22.60;63.00;;;;;;6243279;28;20025;-69
2023/07/18 03:34:12;;;;;;;0.80;0.70;;;22.60;63.00;;;;;;6255887;28;20018;-70
2023/07/18 03:37:12;;;;;;;0.70;0.70;;;22.60;63.00;;;;;;6240117;28;20069;-69
2023/07/18 03:40:15;;;;;;;0.95;0.80;;;22.60;63.00;;;;;;6220247;28;20029;-70
2023/07/18 03:43:16;;;;;;;2.53;0.80;;;22.60;63.00;;;;;;6231247;28;20025;-70
2023/07/18 03:46:17;;;;;;;0.68;0.68;;;22.70;63.10;;;;;;6226827;28;20150;-70
2023/07/18 03:49:17;;;;;;;0.68;0.68;;;22.70;63.10;;;;;;6237200;28;20073;-69
2023/07/18 03:52:18;;;;;;;1.23;0.80;;;22.60;63.00;;;;;;6241371;28;20025;-70
2023/07/18 03:55:19;;;;;;;0.95;0.80;;;22.60;63.00;;;;;;6216290;28;20061;-69
2023/07/18 03:58:20;;;;;;;0.85;0.55;;;22.60;63.00;;;;;;6229770;28;20036;-70
2023/07/18 04:01:20;;;;;;;0.90;0.82;;;22.60;63.00;;;;;;6243932;28;20124;-69
2023/07/18 04:04:21;;;;;;;0.90;0.80;;;22.60;63.00;;;;;;6225522;28;20026;-69
2023/07/18 04:07:22;;;;;;;0.82;0.80;;;22.60;63.00;;;;;;6220481;28;20518;-69
2023/07/18 04:10:22;;;;;;;1.25;0.80;;;22.60;63.00;;;;;;6244175;28;20029;-70
2023/07/18 04:13:24;;;;;;;1.88;0.90;;;22.60;63.00;;;;;;6235139;28;20484;-70
2023/07/18 04:16:24;;;;;;;0.93;0.85;;;22.60;63.00;;;;;;6243124;28;20030;-69
2023/07/18 04:19:25;;;;;;;1.00;0.82;;;22.60;63.00;;;;;;6227155;28;20736;-69
2023/07/18 04:22:26;;;;;;;1.15;0.95;;;22.60;63.00;;;;;;6210061;28;20072;-69
2023/07/18 04:25:35;;;;;;;0.85;0.80;;;22.60;63.00;;;;;;6218585;28;20057;-70
2023/07/18 04:28:37;;;;;;;0.70;0.70;;;22.70;63.10;;;;;;6218420;28;20025;-69
2023/07/18 04:31:37;;;;;;;0.82;0.80;;;22.60;63.00;;;;;;6219417;28;20026;-69
2023/07/18 04:34:38;;;;;;;0.70;0.70;;;22.60;63.00;;;;;;6203596;28;20447;-70
2023/07/18 04:37:38;;;;;;;1.00;0.77;;;22.60;63.00;;;;;;6189281;28;20129;-70
2023/07/18 04:40:39;;;;;;;1.10;1.00;;;22.60;63.00;;;;;;6211505;28;20037;-70
2023/07/18 04:43:40;;;;;;;1.40;1.10;;;22.60;63.00;;;;;;6217085;28;20049;-69
2023/07/18 04:46:41;;;;;;;1.05;0.73;;;22.60;63.00;;;;;;6193481;28;20045;-69
2023/07/18 04:49:41;;;;;;;1.00;0.82;;;22.60;63.00;;;;;;6197465;28;20073;-69
2023/07/18 04:52:42;;;;;;;1.00;0.75;;;22.60;63.00;;;;;;6194372;28;20034;-69
2023/07/18 04:55:45;;;;;;;1.80;1.02;;;22.60;63.90;;;;;;6195604;28;20177;-69
2023/07/18 04:58:46;;;;;;;0.98;0.88;;;22.60;63.00;;;;;;6212522;28;20054;-70
2023/07/18 05:01:51;;;;;;;2.22;1.08;;;22.60;63.10;;;;;;6193349;28;20030;-70
2023/07/18 05:04:52;;;;;;;3.45;0.80;;;22.60;63.10;;;;;;6198618;28;20109;-69
2023/07/18 05:07:54;;;;;;;1.63;1.00;;;22.50;63.40;;;;;;6193999;28;20026;-71
2023/07/18 05:11:03;;;;;;;2.25;1.55;;;22.50;62.00;;;;;;6199110;28;20544;-70
2023/07/18 05:14:04;;;;;;;3.13;1.90;;;22.50;61.50;;;;;;6214698;28;20050;-69
2023/07/18 05:17:04;;;;;;;2.80;1.50;;;22.40;60.80;;;;;;6206212;28;20028;-70
2023/07/18 05:20:06;;;;;;;3.47;1.85;;;22.40;60.70;;;;;;6211639;28;20110;-70
2023/07/18 05:23:06;;;;;;;6.75;2.17;;;22.40;60.10;;;;;;6206168;28;20396;-70
2023/07/18 05:26:08;;;;;;;4.47;2.25;;;22.40;59.80;;;;;;6226597;28;20029;-69
2023/07/18 05:29:08;;;;;;;5.32;2.30;;;22.40;59.60;;;;;;6222291;28;20030;-70
2023/07/18 05:32:09;;;;;;;5.25;2.30;;;22.40;59.60;;;;;;6228456;28;20752;-70
2023/07/18 05:35:11;;;;;;;6.97;2.35;;;22.40;59.30;;;;;;6254363;28;20030;-70
2023/07/18 05:38:11;;;;;;;2.80;1.92;;;22.40;59.40;;;;;;6222612;28;20049;-70
2023/07/18 05:41:12;;;;;;;5.82;2.60;;;22.40;59.70;;;;;;6225206;28;20411;-69
2023/07/18 05:44:14;;;;;;;4.97;2.33;;;22.40;59.30;;;;;;6227658;28;20056;-69
2023/07/18 05:47:15;;;;;;;6.47;2.63;;;22.40;58.80;;;;;;6247073;28;20116;-69
2023/07/18 05:50:16;;;;;;;4.22;2.38;;;22.40;58.80;;;;;;6234803;28;20391;-69
2023/07/18 05:53:17;;;;;;;4.53;2.45;;;22.40;59.30;;;;;;6222164;28;20052;-70
2023/07/18 05:56:17;;;;;;;6.78;2.67;;;22.30;58.80;;;;;;6239829;28;20415;-69
2023/07/18 05:59:18;;;;;;;4.88;2.50;;;22.30;58.90;;;;;;6244308;28;20021;-70
2023/07/18 06:02:20;;;;;;;8.02;3.03;;;22.30;59.30;;;;;;6241537;28;20045;-70
2023/07/18 06:05:20;;;;;;;4.28;2.28;;;22.30;58.70;;;;;;6247603;28;20022;-69
2023/07/18 06:08:21;;;;;;;4.32;2.58;;;22.30;58.70;;;;;;6239646;28;20053;-69
2023/07/18 06:11:22;;;;;;;7.80;2.97;;;22.30;58.30;;;;;;6240994;28;20071;-69
2023/07/18 06:14:23;;;;;;;4.28;2.67;;;22.30;58.20;;;;;;6241657;28;20033;-69
2023/07/18 06:17:23;;;;;;;8.68;2.88;;;22.30;58.50;;;;;;6248115;28;20025;-69
2023/07/18 06:20:24;;;;;;;7.40;2.92;;;22.30;58.20;;;;;;6244687;28;20030;-68
2023/07/18 06:23:25;;;;;;;9.18;3.03;;;22.30;58.20;;;;;;6239086;28;20048;-69
2023/07/18 06:26:25;;;;;;;6.60;2.65;;;22.40;59.10;;;;;;6231492;28;20088;-69
2023/07/18 06:29:26;;;;;;;5.82;2.72;;;22.40;59.00;;;;;;6223687;28;20472;-69
2023/07/18 06:32:28;;;;;;;10.10;2.80;;;22.50;58.60;;;;;;6244827;28;20026;-69
2023/07/18 06:35:30;;;;;;;7.38;2.42;;;22.50;58.70;;;;;;6247807;28;20029;-69
2023/07/18 06:38:30;;;;;;;5.82;2.70;;;22.50;58.20;;;;;;6247274;28;20017;-69
2023/07/18 06:41:32;;;;;;;4.75;2.55;;;22.50;58.70;;;;;;6232305;28;20034;-69
2023/07/18 06:44:32;;;;;;;6.65;2.50;;;22.50;58.70;;;;;;6241611;28;20024;-69
2023/07/18 06:47:33;;;;;;;5.32;2.50;;;22.50;58.80;;;;;;6237962;28;20021;-69
2023/07/18 06:50:33;;;;;;;2.92;2.10;;;22.50;59.50;;;;;;6246543;28;20025;-69
2023/07/18 06:53:34;;;;;;;4.95;2.28;;;22.50;59.20;;;;;;6246297;28;20060;-69
2023/07/18 06:56:36;;;;;;;3.00;2.20;;;22.50;59.20;;;;;;6245765;28;20029;-69
2023/07/18 06:59:37;;;;;;;6.75;2.67;;;22.50;59.20;;;;;;6242861;28;20365;-69
2023/07/18 07:02:38;;;;;;;5.10;2.30;;;22.50;59.90;;;;;;6247092;28;20029;-69
2023/07/18 07:05:42;;;;;;;7.13;2.17;;;22.50;59.30;;;;;;6246926;28;20018;-70
2023/07/18 07:08:42;;;;;;;6.47;2.67;;;22.50;59.40;;;;;;6226382;28;20051;-70
2023/07/18 07:11:43;;;;;;;4.43;2.15;;;22.50;59.40;;;;;;6226124;28;20269;-69
2023/07/18 07:14:44;;;;;;;4.63;2.30;;;22.50;59.40;;;;;;6229212;28;20092;-69
2023/07/18 07:17:44;;;;;;;3.45;1.83;;;22.50;59.50;;;;;;6230386;28;20026;-69
2023/07/18 07:20:45;;;;;;;5.95;2.53;;;22.60;59.60;;;;;;6224845;28;20068;-69
2023/07/18 07:23:46;;;;;;;3.42;1.95;;;22.50;59.60;;;;;;6244451;28;20053;-69
2023/07/18 07:26:46;;;;;;;3.35;2.10;;;22.50;59.70;;;;;;6220304;28;20109;-69
2023/07/18 07:29:47;;;;;;;4.82;1.98;;;22.50;59.80;;;;;;6222281;28;20022;-68
2023/07/18 07:32:51;;;;;;;4.43;2.33;;;22.60;59.90;;;;;;6245949;28;20562;-69
2023/07/18 07:35:52;;;;;;;2.50;1.75;;;22.50;59.90;;;;;;6243965;28;20545;-70
2023/07/18 07:38:52;;;;;;;4.30;1.88;;;22.50;59.90;;;;;;6245989;28;20082;-69
2023/07/18 07:41:53;;;;;;;3.72;1.80;;;22.50;60.00;;;;;;6234701;28;20375;-69
2023/07/18 07:44:53;;;;;;;5.38;2.28;;;22.60;60.00;;;;;;6221124;28;20026;-70
2023/07/18 07:47:54;;;;;;;2.83;1.75;;;22.60;60.20;;;;;;6213880;28;20076;-69
2023/07/18 07:50:57;;;;;;;2.83;1.70;;;22.60;60.20;;;;;;6221706;28;20379;-69
2023/07/18 07:53:58;;;;;;;3.20;2.03;;;22.60;60.20;;;;;;6236415;28;20621;-69
2023/07/18 07:56:59;;;;;;;1.80;1.50;;;22.50;60.10;;;;;;6237305;28;20120;-69
2023/07/18 07:59:59;;;;;;;3.83;1.75;;;22.50;60.20;;;;;;6221102;28;20040;-69
2023/07/18 08:03:00;;;;;;;2.33;1.65;;;22.60;60.40;;;;;;6231058;28;20535;-69
2023/07/18 08:06:01;;;;;;;2.67;1.50;;;22.60;60.40;;;;;;6221030;28;20076;-70
2023/07/18 08:09:02;;;;;;;2.38;1.67;;;22.50;60.40;;;;;;6243571;28;20017;-69
2023/07/18 08:12:04;;;;;;;3.05;1.65;;;22.50;60.40;;;;;;6239378;28;20507;-69
2023/07/18 08:15:05;;;;;;;2.97;1.88;;;22.50;60.40;;;;;;6229691;28;20080;-69
2023/07/18 08:18:05;;;;;;;2.33;1.52;;;22.60;60.60;;;;;;6230642;28;20033;-69
2023/07/18 08:21:06;;;;;;;2.50;2.00;;;22.60;60.60;;;;;;6221426;28;20026;-69
2023/07/18 08:24:07;;;;;;;1.85;1.50;;;22.50;60.60;;;;;;6241927;28;20112;-69
2023/07/18 08:27:08;;;;;;;2.78;1.77;;;22.50;60.40;;;;;;6240258;28;20555;-69
2023/07/18 08:30:09;;;;;;;5.00;1.83;;;22.50;60.50;;;;;;6220834;28;20097;-70
2023/07/18 08:33:09;;;;;;;3.53;1.98;;;22.50;58.50;;;;;;6233314;28;20033;-69
2023/07/18 08:36:10;;;;;;;3.88;2.10;;;22.50;59.80;;;;;;6227108;28;20049;-69
2023/07/18 08:39:11;;;;;;;3.72;1.73;;;22.50;59.80;;;;;;6233110;28;20553;-69
2023/07/18 08:42:14;;;;;;;4.30;1.92;;;22.50;59.70;;;;;;6223590;28;20032;-69
2023/07/18 08:45:15;;;;;;;3.13;1.80;;;22.50;59.20;;;;;;6202785;28;20477;-69
2023/07/18 08:48:16;;;;;;;3.63;2.28;;;22.50;59.20;;;;;;6232616;28;20037;-69
2023/07/18 08:51:17;;;;;;;2.95;1.92;;;22.50;58.90;;;;;;6245157;28;20091;-69
2023/07/18 08:54:17;;;;;;;6.53;2.55;;;22.50;58.80;;;;;;6229278;28;20634;-69
2023/07/18 08:57:19;;;;;;;3.47;2.08;;;22.50;58.20;;;;;;6226126;28;20018;-70
2023/07/18 09:00:20;;;;;;;3.90;2.08;;;22.50;58.30;;;;;;6249649;28;20029;-69
2023/07/18 09:03:21;;;;;;;4.75;2.38;;;22.50;58.50;;;;;;6250295;28;20032;-69
2023/07/18 09:06:21;;;;;;;3.97;2.10;;;22.50;57.10;;;;;;6249306;28;20025;-69
2023/07/18 09:09:23;;;;;;;6.78;2.40;;;22.50;57.90;;;;;;6243683;28;20491;-69
2023/07/18 09:12:23;;;;;;;3.85;2.00;;;22.50;56.50;;;;;;6226454;28;20029;-70
2023/07/18 09:15:24;;;;;;;4.43;2.20;;;22.50;57.50;;;;;;6234004;28;20029;-70
2023/07/18 09:18:25;;;;;;;5.53;2.70;;;22.50;57.10;;;;;;6233720;28;20033;-69
2023/07/18 09:21:25;;;;;;;5.03;2.50;;;22.50;56.00;;;;;;6227762;28;20977;-69
2023/07/18 09:24:35;;;;;;;4.05;2.40;;;22.50;57.20;;;;;;6236049;28;20072;-69
2023/07/18 09:27:36;;;;;;;7.65;2.35;;;22.50;57.50;;;;;;6225195;28;20057;-71
2023/07/18 09:30:37;;;;;;;3.55;1.90;;;22.40;55.50;;;;;;6237142;28;20036;-69
2023/07/18 09:33:38;;;;;;;4.68;2.20;;;22.50;57.50;;;;;;6237916;28;20029;-70
2023/07/18 09:36:39;;;;;;;8.25;2.30;;;22.50;57.30;;;;;;6224072;28;20037;-70
2023/07/18 09:39:39;;;;;;;4.45;1.88;;;22.40;57.10;;;;;;6239681;28;20021;-69
2023/07/18 09:42:45;;;;;;;5.05;2.03;;;22.50;57.10;;;;;;6245142;28;20030;-69
2023/07/18 09:45:46;;;;;;;7.32;1.90;;;22.40;57.20;;;;;;6237473;28;20025;-69
2023/07/18 09:48:47;;;;;;;4.55;2.30;;;22.50;57.40;;;;;;6232499;28;20029;-69
2023/07/18 09:52:01;;;;;;;3.15;2.00;;;22.50;56.20;;;;;;6229832;28;20073;-70
2023/07/18 09:55:06;;;;;;;5.18;1.95;;;22.50;57.60;;;;;;6241068;28;20025;-69
2023/07/18 09:58:10;;;;;;;7.47;2.33;;;22.40;56.90;;;;;;6244827;28;20036;-69
2023/07/18 10:01:12;;;;;;;4.40;1.90;;;22.50;56.60;;;;;;6234640;28;20112;-69
2023/07/18 10:04:13;;;;;;;4.10;2.08;;;22.50;57.50;;;;;;6238423;28;20022;-69
2023/07/18 10:07:14;;;;;;;3.22;1.80;;;22.50;57.20;;;;;;6219606;28;20504;-70
2023/07/18 10:10:15;;;;;;;4.25;1.92;;;22.50;57.30;;;;;;6230258;28;20678;-70
2023/07/18 10:13:16;;;;;;;3.92;2.13;;;22.50;57.40;;;;;;6227678;28;20052;-70
2023/07/18 10:16:18;;;;;;;6.60;1.95;;;22.50;57.30;;;;;;6224765;28;20030;-70
2023/07/18 10:19:22;;;;;;;2.72;1.80;;;22.50;57.20;;;;;;6230782;28;20475;-70
2023/07/18 10:22:28;;;;;;;4.60;2.05;;;22.50;57.00;;;;;;6243648;28;20049;-70
2023/07/18 10:25:29;;;;;;;4.18;1.77;;;22.50;57.40;;;;;;6230090;28;20511;-70
2023/07/18 10:28:45;;;;;;;2.67;1.50;;;22.50;57.50;;;;;;6222372;28;20076;-70
2023/07/18 10:31:46;;;;;;;3.15;1.67;;;22.50;57.70;;;;;;6235391;28;20044;-70
2023/07/18 10:34:53;;;;;;;3.63;1.88;;;22.50;58.00;;;;;;6260333;28;20056;-70
2023/07/18 10:37:56;;;;;;;3.15;1.73;;;22.50;58.00;;;;;;6224638;28;20029;-70
2023/07/18 10:40:57;;;;;;;3.42;1.80;;;22.50;58.20;;;;;;6240735;28;20391;-70
2023/07/18 10:43:58;;;;;;;2.60;1.73;;;22.50;58.20;;;;;;6233437;28;20053;-70
2023/07/18 10:46:59;;;;;;;2.33;1.48;;;22.50;58.40;;;;;;6246191;28;20427;-70
2023/07/18 10:49:59;;;;;;;2.72;1.60;;;22.50;58.50;;;;;;6241997;28;20025;-70
2023/07/18 10:53:01;;;;;;;2.35;1.45;;;22.50;58.50;;;;;;6246415;28;20022;-70
2023/07/18 10:56:01;;;;;;;4.07;1.63;;;22.50;58.60;;;;;;6242860;28;20033;-70
2023/07/18 10:59:02;;;;;;;3.03;1.67;;;22.50;58.60;;;;;;6221154;28;20022;-70
2023/07/18 11:02:03;;;;;;;3.47;1.90;;;22.50;58.60;;;;;;6245943;28;20036;-70
2023/07/18 11:05:11;;;;;;;2.25;1.48;;;22.50;58.80;;;;;;6246228;28;20017;-70
2023/07/18 11:08:22;;;;;;;2.38;1.45;;;22.50;59.50;;;;;;6232728;28;20018;-69
2023/07/18 11:11:23;;;;;;;1.77;1.40;;;22.50;58.90;;;;;;6232298;28;20025;-71
2023/07/18 11:14:24;;;;;;;2.20;1.58;;;22.50;59.00;;;;;;6239703;28;20070;-70
2023/07/18 11:17:25;;;;;;;3.15;1.60;;;22.50;59.00;;;;;;6245135;28;20083;-70
2023/07/18 11:20:26;;;;;;;2.08;1.58;;;22.50;59.10;;;;;;6245193;28;20021;-70
2023/07/18 11:23:27;;;;;;;2.20;1.35;;;22.50;59.20;;;;;;6236359;28;20057;-70
2023/07/18 11:26:27;;;;;;;1.65;1.48;;;22.50;59.20;;;;;;6228915;28;20030;-70
2023/07/18 11:29:28;;;;;;;1.70;1.40;;;22.50;59.20;;;;;;6221253;28;20029;-70
2023/07/18 11:32:47;;;;;;;2.45;1.50;;;22.50;59.30;;;;;;6239475;28;20029;-70
2023/07/18 11:35:48;;;;;;;2.17;1.40;;;22.50;59.30;;;;;;6246063;28;20073;-70
2023/07/18 11:38:50;;;;;;;2.70;1.30;;;22.50;59.30;;;;;;6225845;28;20025;-70
2023/07/18 11:41:52;;;;;;;1.80;1.33;;;22.50;59.40;;;;;;6223793;28;20600;-70
2023/07/18 11:44:54;;;;;;;1.63;1.20;;;22.50;59.40;;;;;;6222007;28;20109;-70
2023/07/18 11:47:57;;;;;;;2.35;1.70;;;22.50;59.50;;;;;;6244475;28;20097;-70
2023/07/18 11:51:03;;;;;;;1.70;1.10;;;22.50;59.50;;;;;;6245500;28;20128;-70
2023/07/18 11:54:04;;;;;;;1.85;1.20;;;22.50;59.50;;;;;;6225826;28;20036;-70
2023/07/18 11:57:05;;;;;;;1.42;1.25;;;22.50;59.60;;;;;;6234735;28;20108;-70
2023/07/18 12:00:08;;;;;;;2.35;1.45;;;22.50;59.60;;;;;;6221366;28;20032;-70
2023/07/18 12:03:09;;;;;;;1.80;1.20;;;22.50;59.60;;;;;;6234387;28;20038;-70
2023/07/18 12:06:09;;;;;;;1.40;1.27;;;22.50;59.60;;;;;;6229458;28;20128;-70
2023/07/18 12:09:11;;;;;;;1.58;1.00;;;22.50;59.70;;;;;;6228832;28;20055;-70
2023/07/18 12:12:11;;;;;;;2.42;1.15;;;22.50;59.70;;;;;;6234801;28;20032;-70
2023/07/18 12:15:13;;;;;;;1.67;1.20;;;22.50;59.70;;;;;;6227485;28;20030;-70
2023/07/18 12:18:14;;;;;;;1.33;1.02;;;22.50;59.80;;;;;;6243686;28;20069;-70
2023/07/18 12:21:14;;;;;;;1.60;1.10;;;22.50;59.80;;;;;;6237990;28;20106;-70
2023/07/18 12:24:15;;;;;;;1.67;1.30;;;22.50;59.80;;;;;;6220139;28;20096;-70
2023/07/18 12:27:16;;;;;;;1.40;1.00;;;22.50;59.80;;;;;;6234112;28;20032;-70
2023/07/18 12:30:17;;;;;;;1.98;1.50;;;22.50;59.90;;;;;;6244386;28;20049;-70
2023/07/18 12:33:17;;;;;;;2.05;1.10;;;22.50;59.90;;;;;;6224592;28;20030;-70
2023/07/18 12:36:19;;;;;;;1.20;1.00;;;22.50;59.90;;;;;;6230706;28;20044;-70
2023/07/18 12:39:19;;;;;;;1.88;1.13;;;22.50;60.00;;;;;;6242455;28;20067;-70
2023/07/18 12:42:20;;;;;;;1.35;1.08;;;22.50;60.00;;;;;;6249266;28;20483;-69
2023/07/18 12:45:20;;;;;;;1.92;1.33;;;22.50;60.00;;;;;;6226039;28;20034;-70
2023/07/18 12:48:21;;;;;;;1.27;1.00;;;22.50;60.00;;;;;;6238158;28;20491;-70
2023/07/18 12:51:23;;;;;;;1.50;1.00;;;22.50;60.00;;;;;;6228994;28;20060;-70
2023/07/18 12:54:24;;;;;;;1.50;1.10;;;22.50;60.00;;;;;;6249093;28;20025;-70
2023/07/18 12:57:26;;;;;;;1.40;1.10;;;22.50;60.00;;;;;;6249168;28;20056;-70
2023/07/18 13:00:27;;;;;;;1.23;1.08;;;22.50;60.10;;;;;;6226454;28;20029;-70
2023/07/18 13:03:27;;;;;;;1.45;1.08;;;22.50;60.00;;;;;;6244195;28;20034;-70
2023/07/18 13:06:28;;;;;;;1.35;1.08;;;22.50;60.20;;;;;;6246464;28;20037;-70
2023/07/18 13:09:28;;;;;;;1.13;1.00;;;22.50;60.10;;;;;;6236318;28;20029;-70
2023/07/18 13:12:30;;;;;;;1.50;1.00;;;22.50;60.20;;;;;;6238656;28;20388;-70
2023/07/18 13:15:30;;;;;;;1.20;1.08;;;22.50;60.20;;;;;;6241422;28;20029;-69
2023/07/18 13:18:31;;;;;;;1.25;1.00;;;22.50;60.20;;;;;;6229515;28;20022;-70
2023/07/18 13:21:32;;;;;;;1.42;1.17;;;22.50;60.20;;;;;;6225732;28;20411;-70
2023/07/18 13:24:32;;;;;;;1.33;0.95;;;22.50;60.20;;;;;;6244272;28;20029;-70
2023/07/18 13:27:33;;;;;;;1.10;0.93;;;22.50;60.20;;;;;;6234429;28;20013;-70
2023/07/18 13:30:34;;;;;;;1.27;0.98;;;22.50;60.20;;;;;;6247551;28;20476;-69
2023/07/18 13:33:36;;;;;;;1.58;0.98;;;22.50;60.20;;;;;;6261294;28;20395;-69
2023/07/18 13:36:36;;;;;;;1.23;0.95;;;22.50;60.20;;;;;;6249340;28;20040;-69
2023/07/18 13:39:37;;;;;;;1.52;0.90;;;22.50;60.30;;;;;;6229455;28;20018;-69
2023/07/18 13:42:37;;;;;;;1.15;0.98;;;22.50;60.30;;;;;;6247863;28;20052;-68
2023/07/18 13:45:38;;;;;;;1.23;0.90;;;22.50;60.30;;;;;;6248263;28;20097;-69
2023/07/18 13:48:39;;;;;;;0.98;0.80;;;22.50;60.30;;;;;;6224362;28;20026;-71
2023/07/18 13:51:39;;;;;;;1.20;0.95;;;22.50;60.30;;;;;;6223593;28;20129;-71
2023/07/18 13:54:40;;;;;;;1.52;1.00;;;22.50;60.40;;;;;;6241124;28;20018;-72
2023/07/18 13:57:41;;;;;;;1.23;1.02;;;22.50;60.40;;;;;;6228932;28;20159;-71
2023/07/18 14:00:42;;;;;;;1.17;1.08;;;22.50;60.40;;;;;;6235371;28;20034;-71
2023/07/18 14:03:42;;;;;;;1.15;0.80;;;22.60;60.60;;;;;;6236939;28;20025;-71
2023/07/18 14:06:43;;;;;;;1.10;1.00;;;22.50;60.40;;;;;;6227664;28;20040;-71
2023/07/18 14:09:43;;;;;;;1.02;0.90;;;22.50;60.40;;;;;;6223144;28;20088;-71
2023/07/18 14:12:45;;;;;;;1.30;0.90;;;22.50;60.40;;;;;;6230996;28;20495;-71
2023/07/18 14:15:45;;;;;;;0.60;0.57;;;22.50;60.50;;;;;;6226963;28;20623;-71
2023/07/18 14:18:46;;;;;;;1.20;0.90;;;22.50;60.40;;;;;;6234438;28;20026;-71
2023/07/18 14:21:46;;;;;;;0.70;0.60;;;22.50;60.50;;;;;;6245592;28;20064;-71
2023/07/18 14:24:48;;;;;;;0.82;0.68;;;22.50;60.50;;;;;;6233854;28;20037;-71
2023/07/18 14:27:48;;;;;;;1.13;0.80;;;22.60;60.60;;;;;;6244046;28;20022;-71
2023/07/18 14:30:49;;;;;;;1.40;1.02;;;22.50;60.50;;;;;;6222083;28;20591;-71
2023/07/18 14:33:50;;;;;;;1.65;0.85;;;22.50;60.60;;;;;;6241910;28;20029;-71
2023/07/18 14:36:50;;;;;;;1.23;0.90;;;22.50;60.60;;;;;;6246857;28;20040;-71
2023/07/18 14:39:59;;;;;;;1.15;0.90;;;22.50;61.40;;;;;;6245384;28;20028;-71
2023/07/18 14:42:59;;;;;;;1.08;0.93;;;22.50;60.60;;;;;;6227248;28;20025;-71
2023/07/18 14:46:03;;;;;;;0.95;0.80;;;22.50;60.60;;;;;;6222021;28;20038;-71
2023/07/18 14:49:03;;;;;;;1.05;0.90;;;22.50;60.60;;;;;;6231576;28;20033;-68
2023/07/18 14:52:04;;;;;;;1.30;0.82;;;22.50;60.60;;;;;;6246367;28;20033;-69
2023/07/18 14:55:05;;;;;;;1.05;0.70;;;22.50;60.60;;;;;;6227452;28;20022;-71
2023/07/18 14:58:06;;;;;;;1.73;0.90;;;22.50;60.60;;;;;;6243684;28;20101;-71
2023/07/18 15:01:06;;;;;;;0.93;0.70;;;22.50;60.60;;;;;;6221492;28;20033;-72
2023/07/18 15:04:07;;;;;;;1.83;1.00;;;22.60;60.70;;;;;;6230550;28;20088;-70
2023/07/18 15:07:09;;;;;;;1.00;0.90;;;22.60;60.80;;;;;;6230264;28;20091;-71
2023/07/18 15:10:10;;;;;;;0.70;0.70;;;22.50;60.60;;;;;;6237278;28;20133;-71
2023/07/18 15:13:11;;;;;;;1.00;0.85;;;22.50;60.60;;;;;;6246054;28;20105;-72
2023/07/18 15:16:11;;;;;;;1.33;0.80;;;22.50;60.70;;;;;;6236274;28;20037;-71
2023/07/18 15:19:12;;;;;;;0.60;0.60;;;22.50;60.70;;;;;;6228141;28;20494;-71
2023/07/18 15:22:12;;;;;;;0.80;0.70;;;22.50;60.70;;;;;;6244717;28;20132;-71
2023/07/18 15:25:13;;;;;;;0.88;0.80;;;22.50;60.70;;;;;;6220466;28;20045;-71
2023/07/18 15:28:15;;;;;;;0.88;0.70;;;22.50;60.70;;;;;;6219314;28;20057;-71
2023/07/18 15:31:15;;;;;;;1.58;0.60;;;22.50;60.70;;;;;;6222733;28;20108;-71
2023/07/18 15:34:16;;;;;;;1.10;0.73;;;22.50;60.70;;;;;;6237444;28;20026;-71
2023/07/18 15:37:16;;;;;;;0.65;0.60;;;22.50;60.70;;;;;;6229584;28;20504;-71
2023/07/18 15:40:17;;;;;;;0.70;0.70;;;22.50;60.70;;;;;;6230252;28;20025;-71
2023/07/18 15:43:18;;;;;;;0.55;0.50;;;22.50;60.80;;;;;;6219331;28;20054;-71
2023/07/18 15:46:19;;;;;;;0.60;0.60;;;22.50;60.70;;;;;;6221650;28;20029;-71